Time;durP1;ratioP1;P1;durP2;ratioP2;P2;SDS_P1;SDS_P2;PMS_P1;PMS_P2;Temp;Humidity;BMP_temperature;BMP_pressure;BME280_temperature;BME280_humidity;BME280_pressure;Samples;Min_cycle;Max_cycle;Signal;HPM_P1;HPM_P2
2023/06/23 00:02:17;;;;;;;2.80;1.30;;;;;;;;;;5037962;28;20229;-35
2023/06/23 00:04:44;;;;;;;1.20;1.08;;;;;;;;;;5045423;28;20300;-33
2023/06/23 00:07:13;;;;;;;1.58;1.20;;;;;;;;;;5035247;28;20211;-31
2023/06/23 00:09:40;;;;;;;1.95;1.15;;;;;;;;;;5047543;28;20291;-35
2023/06/23 00:12:07;;;;;;;1.88;1.40;;;;;;;;;;5055185;28;20216;-33
2023/06/23 00:14:34;;;;;;;1.23;1.13;;;;;;;;;;5055410;28;20266;-35
2023/06/23 00:17:02;;;;;;;1.20;1.10;;;;;;;;;;5047152;28;20209;-34
2023/06/23 00:19:31;;;;;;;1.55;1.30;;;;;;;;;;5038613;28;20236;-33
2023/06/23 00:21:58;;;;;;;1.25;1.10;;;;;;;;;;5034565;28;20201;-33
2023/06/23 00:24:27;;;;;;;0.98;0.90;;;;;;;;;;5036462;28;20259;-34
2023/06/23 00:26:55;;;;;;;1.20;1.10;;;;;;;;;;5053309;28;20299;-33
2023/06/23 00:29:22;;;;;;;1.27;1.00;;;;;;;;;;5055126;28;20224;-32
2023/06/23 00:31:50;;;;;;;2.05;1.10;;;;;;;;;;5055482;28;20209;-32
2023/06/23 00:34:17;;;;;;;1.27;1.17;;;;;;;;;;5049651;28;20232;-33
2023/06/23 00:36:44;;;;;;;2.33;1.20;;;;;;;;;;5037946;28;20227;-31
2023/06/23 00:39:11;;;;;;;1.25;1.15;;;;;;;;;;5046500;28;20225;-36
2023/06/23 00:41:39;;;;;;;1.83;1.17;;;;;;;;;;5037322;28;20212;-30
2023/06/23 00:44:08;;;;;;;1.10;1.05;;;;;;;;;;5034915;28;20304;-33
2023/06/23 00:46:35;;;;;;;1.58;1.10;;;;;;;;;;5034007;28;20249;-32
2023/06/23 00:49:03;;;;;;;1.40;1.30;;;;;;;;;;5041678;28;20224;-31
2023/06/23 00:51:31;;;;;;;3.65;1.33;;;;;;;;;;5047505;28;20228;-31
2023/06/23 00:53:59;;;;;;;1.05;1.05;;;;;;;;;;5030635;28;20205;-29
2023/06/23 00:56:26;;;;;;;2.85;1.35;;;;;;;;;;5034207;28;20209;-32
2023/06/23 00:58:55;;;;;;;2.25;1.42;;;;;;;;;;5042737;28;20224;-32
2023/06/23 01:01:22;;;;;;;1.17;1.10;;;;;;;;;;5038071;28;20258;-35
2023/06/23 01:03:50;;;;;;;1.02;1.00;;;;;;;;;;5050425;28;20212;-35
2023/06/23 01:06:23;;;;;;;1.45;1.10;;;;;;;;;;5034080;28;20209;-34
2023/06/23 01:08:55;;;;;;;1.13;1.10;;;;;;;;;;5034741;28;20246;-32
2023/06/23 01:11:24;;;;;;;1.33;1.23;;;;;;;;;;5034456;28;20204;-33
2023/06/23 01:13:53;;;;;;;0.80;0.80;;;;;;;;;;5052750;28;20261;-35
2023/06/23 01:16:26;;;;;;;0.77;0.77;;;;;;;;;;5053993;28;20207;-33
2023/06/23 01:18:54;;;;;;;0.70;0.70;;;;;;;;;;5049497;28;20645;-30
2023/06/23 01:21:29;;;;;;;1.13;1.00;;;;;;;;;;5046021;28;20214;-30
2023/06/23 01:24:04;;;;;;;0.90;0.90;;;;;;;;;;5036614;28;20222;-36
2023/06/23 01:26:47;;;;;;;1.45;1.05;;;;;;;;;;5044158;28;20206;-33
2023/06/23 01:29:17;;;;;;;1.75;0.90;;;;;;;;;;5040335;28;20229;-33
2023/06/23 01:31:49;;;;;;;1.00;0.90;;;;;;;;;;5034818;28;20238;-34
2023/06/23 01:34:20;;;;;;;0.95;0.90;;;;;;;;;;5040726;28;20211;-35
2023/06/23 01:36:49;;;;;;;0.90;0.90;;;;;;;;;;5043364;28;20197;-30
2023/06/23 01:39:18;;;;;;;0.70;0.70;;;;;;;;;;5041685;28;20287;-33
2023/06/23 01:41:47;;;;;;;1.15;0.80;;;;;;;;;;5052321;28;20226;-31
2023/06/23 01:44:15;;;;;;;0.70;0.70;;;;;;;;;;5047602;28;20203;-32
2023/06/23 01:46:46;;;;;;;0.95;0.73;;;;;;;;;;5050078;28;20207;-34
2023/06/23 01:49:16;;;;;;;2.17;0.93;;;;;;;;;;5047259;28;20249;-34
2023/06/23 01:51:45;;;;;;;1.65;0.85;;;;;;;;;;5035469;28;20327;-31
2023/06/23 01:54:13;;;;;;;0.98;0.90;;;;;;;;;;5038740;28;20209;-33
2023/06/23 01:56:42;;;;;;;1.60;0.60;;;;;;;;;;5044241;28;20209;-32
2023/06/23 01:59:10;;;;;;;1.13;0.90;;;;;;;;;;5040256;28;20235;-33
2023/06/23 02:01:38;;;;;;;1.73;1.20;;;;;;;;;;5033730;28;20212;-35
2023/06/23 02:04:07;;;;;;;3.05;0.90;;;;;;;;;;5045297;28;20208;-33
2023/06/23 02:06:36;;;;;;;1.08;1.08;;;;;;;;;;5044825;28;20218;-31
2023/06/23 02:09:03;;;;;;;1.40;1.30;;;;;;;;;;5035409;28;20227;-32
2023/06/23 02:11:32;;;;;;;2.10;1.83;;;;;;;;;;5040406;28;20210;-34
2023/06/23 02:13:59;;;;;;;2.25;1.73;;;;;;;;;;5053312;28;20212;-32
2023/06/23 02:16:28;;;;;;;2.75;2.17;;;;;;;;;;5053131;28;20213;-36
2023/06/23 02:18:56;;;;;;;4.15;2.50;;;;;;;;;;5043220;28;20637;-31
2023/06/23 02:21:26;;;;;;;2.75;2.55;;;;;;;;;;5041475;28;20202;-34
2023/06/23 02:26:28;;;;;;;4.07;2.60;;;;;;;;;;5142390;22;20232;-28
2023/06/23 02:28:56;;;;;;;2.10;2.00;;;;;;;;;;5094578;28;20217;-33
2023/06/23 02:31:24;;;;;;;2.75;2.55;;;;;;;;;;5089750;28;20227;-38
2023/06/23 02:33:51;;;;;;;3.53;2.50;;;;;;;;;;5103104;28;20215;-32
2023/06/23 02:36:20;;;;;;;2.85;2.65;;;;;;;;;;5099025;28;20610;-33
2023/06/23 02:38:50;;;;;;;4.85;2.35;;;;;;;;;;5092321;28;20225;-33
2023/06/23 02:41:18;;;;;;;3.33;2.60;;;;;;;;;;5090891;28;20236;-36
2023/06/23 02:43:50;;;;;;;3.42;2.80;;;;;;;;;;5110708;28;20255;-37
2023/06/23 02:46:18;;;;;;;2.70;2.50;;;;;;;;;;5106094;28;20205;-35
2023/06/23 02:48:47;;;;;;;3.13;2.92;;;;;;;;;;5099021;28;20224;-39
2023/06/23 02:51:15;;;;;;;2.65;2.45;;;;;;;;;;5098900;28;20204;-34
2023/06/23 02:53:44;;;;;;;2.47;2.28;;;;;;;;;;5088567;28;20216;-35
2023/06/23 02:56:16;;;;;;;2.45;2.25;;;;;;;;;;5097333;28;20207;-37
2023/06/23 02:58:46;;;;;;;2.60;2.40;;;;;;;;;;5103044;28;20221;-37
2023/06/23 03:01:14;;;;;;;3.20;2.17;;;;;;;;;;5092342;28;20224;-36
2023/06/23 03:03:43;;;;;;;3.00;2.70;;;;;;;;;;5110385;28;20269;-38
2023/06/23 03:06:18;;;;;;;2.92;2.50;;;;;;;;;;5112413;28;20210;-33
2023/06/23 03:08:46;;;;;;;2.33;2.20;;;;;;;;;;5109186;28;20223;-38
2023/06/23 03:11:16;;;;;;;2.88;2.58;;;;;;;;;;5103825;28;20200;-34
2023/06/23 03:13:43;;;;;;;2.65;2.40;;;;;;;;;;5109919;28;20211;-32
2023/06/23 03:16:13;;;;;;;5.95;2.30;;;;;;;;;;5112323;28;20208;-36
2023/06/23 03:18:44;;;;;;;2.13;2.03;;;;;;;;;;5106535;28;20247;-34
2023/06/23 03:21:12;;;;;;;1.92;1.80;;;;;;;;;;5096779;28;20247;-37
2023/06/23 03:23:40;;;;;;;2.72;2.53;;;;;;;;;;5099351;28;20207;-33
2023/06/23 03:26:08;;;;;;;2.60;2.40;;;;;;;;;;5097022;28;20216;-36
2023/06/23 03:28:37;;;;;;;3.25;2.50;;;;;;;;;;5100180;28;20216;-35
2023/06/23 03:31:08;;;;;;;3.83;2.40;;;;;;;;;;5112847;28;20225;-33
2023/06/23 03:33:37;;;;;;;2.80;2.60;;;;;;;;;;5102453;28;20196;-37
2023/06/23 03:36:07;;;;;;;3.85;2.70;;;;;;;;;;5112248;28;20231;-35
2023/06/23 03:38:37;;;;;;;2.60;2.40;;;;;;;;;;5109059;28;20227;-37
2023/06/23 03:41:05;;;;;;;3.40;2.78;;;;;;;;;;5102623;28;20227;-33
2023/06/23 03:43:34;;;;;;;2.90;2.70;;;;;;;;;;5100215;28;20204;-36
2023/06/23 03:46:06;;;;;;;3.25;2.80;;;;;;;;;;5092075;28;20230;-36
2023/06/23 03:48:34;;;;;;;3.15;2.90;;;;;;;;;;5094103;28;20229;-35
2023/06/23 03:51:04;;;;;;;4.50;3.50;;;;;;;;;;5091773;28;20208;-34
2023/06/23 03:53:32;;;;;;;3.40;3.20;;;;;;;;;;5093444;28;20203;-36
2023/06/23 03:56:01;;;;;;;3.70;3.30;;;;;;;;;;5095151;28;20208;-32
2023/06/23 03:58:29;;;;;;;3.20;2.90;;;;;;;;;;5098808;28;20264;-33
2023/06/23 04:00:57;;;;;;;8.32;3.60;;;;;;;;;;5107520;28;20224;-32
2023/06/23 04:03:25;;;;;;;3.92;3.53;;;;;;;;;;5091851;28;20204;-35
2023/06/23 04:05:53;;;;;;;3.92;3.47;;;;;;;;;;5102811;28;20204;-35
2023/06/23 04:08:21;;;;;;;3.58;3.28;;;;;;;;;;5104489;28;20311;-39
2023/06/23 04:10:48;;;;;;;5.28;3.20;;;;;;;;;;5101524;28;20208;-39
2023/06/23 04:13:16;;;;;;;7.18;3.63;;;;;;;;;;5100030;28;20196;-34
2023/06/23 04:15:44;;;;;;;3.95;3.65;;;;;;;;;;5095516;28;20204;-35
2023/06/23 04:18:12;;;;;;;3.75;3.15;;;;;;;;;;5095762;28;20218;-34
2023/06/23 04:20:41;;;;;;;4.57;3.60;;;;;;;;;;5106229;28;20224;-39
2023/06/23 04:23:10;;;;;;;3.90;3.50;;;;;;;;;;5091152;28;20209;-31
2023/06/23 04:25:37;;;;;;;5.82;3.47;;;;;;;;;;5098032;28;20213;-41
2023/06/23 04:28:06;;;;;;;3.77;3.30;;;;;;;;;;5109402;28;20216;-40
2023/06/23 04:30:34;;;;;;;3.90;3.55;;;;;;;;;;5095377;28;20215;-37
2023/06/23 04:33:01;;;;;;;3.05;2.75;;;;;;;;;;5100543;28;20207;-35
2023/06/23 04:35:28;;;;;;;3.15;2.90;;;;;;;;;;5103495;28;20203;-31
2023/06/23 04:37:59;;;;;;;3.17;2.78;;;;;;;;;;5094523;28;20230;-34
2023/06/23 04:40:30;;;;;;;2.72;2.50;;;;;;;;;;5099164;28;20208;-33
2023/06/23 04:43:01;;;;;;;2.95;2.70;;;;;;;;;;5103374;28;20201;-34
2023/06/23 04:45:28;;;;;;;3.10;2.78;;;;;;;;;;5095515;28;20214;-31
2023/06/23 04:47:57;;;;;;;3.03;2.73;;;;;;;;;;5101598;28;20224;-37
2023/06/23 04:50:27;;;;;;;3.67;2.90;;;;;;;;;;5108486;28;20188;-37
2023/06/23 04:52:54;;;;;;;2.80;2.60;;;;;;;;;;5091194;28;20205;-34
2023/06/23 04:55:29;;;;;;;3.42;3.13;;;;;;;;;;5096081;28;20207;-36
2023/06/23 04:57:57;;;;;;;4.50;2.70;;;;;;;;;;5106193;28;20215;-36
2023/06/23 05:00:25;;;;;;;3.03;2.73;;;;;;;;;;5115403;28;20223;-32
2023/06/23 05:02:55;;;;;;;5.27;2.80;;;;;;;;;;5104883;28;20204;-36
2023/06/23 05:05:24;;;;;;;2.90;2.60;;;;;;;;;;5106650;28;20196;-31
2023/06/23 05:07:52;;;;;;;2.40;2.20;;;;;;;;;;5094352;28;20316;-35
2023/06/23 05:10:20;;;;;;;3.20;2.70;;;;;;;;;;5102727;28;20199;-36
2023/06/23 05:12:49;;;;;;;3.20;2.30;;;;;;;;;;5106196;28;20210;-31
2023/06/23 05:15:17;;;;;;;2.70;2.30;;;;;;;;;;5115096;28;20216;-32
2023/06/23 05:17:46;;;;;;;3.92;3.00;;;;;;;;;;5100647;28;20232;-36
2023/06/23 05:20:13;;;;;;;3.47;3.05;;;;;;;;;;5114518;28;20226;-39
2023/06/23 05:22:40;;;;;;;3.38;3.08;;;;;;;;;;5115332;28;20295;-33
2023/06/23 05:25:08;;;;;;;4.10;3.17;;;;;;;;;;5097298;28;20380;-36
2023/06/23 05:27:36;;;;;;;3.97;3.53;;;;;;;;;;5102310;28;20220;-38
2023/06/23 05:30:05;;;;;;;5.25;4.03;;;;;;;;;;5115155;28;20409;-36
2023/06/23 05:32:34;;;;;;;5.82;3.20;;;;;;;;;;5111926;28;20203;-37
2023/06/23 05:35:02;;;;;;;6.55;4.30;;;;;;;;;;5097306;28;20211;-32
2023/06/23 05:37:31;;;;;;;7.80;3.40;;;;;;;;;;5109476;28;20272;-33
2023/06/23 05:39:59;;;;;;;3.60;3.30;;;;;;;;;;5100279;28;20196;-33
2023/06/23 05:42:27;;;;;;;4.38;3.97;;;;;;;;;;5105784;28;20215;-34
2023/06/23 05:44:54;;;;;;;3.47;3.17;;;;;;;;;;5095643;28;20208;-37
2023/06/23 05:47:25;;;;;;;3.80;3.23;;;;;;;;;;5093352;28;20196;-34
2023/06/23 05:49:54;;;;;;;4.80;4.25;;;;;;;;;;5105721;28;20218;-32
2023/06/23 05:52:23;;;;;;;5.25;4.15;;;;;;;;;;5108279;28;20199;-39
2023/06/23 05:54:52;;;;;;;5.23;4.60;;;;;;;;;;5097067;28;20204;-37
2023/06/23 05:57:23;;;;;;;4.72;4.07;;;;;;;;;;5092821;28;20192;-37
2023/06/23 05:59:56;;;;;;;4.78;4.00;;;;;;;;;;5093701;28;20200;-31
2023/06/23 06:02:26;;;;;;;6.03;4.20;;;;;;;;;;5097072;28;20238;-35
2023/06/23 06:05:00;;;;;;;5.70;4.25;;;;;;;;;;5102240;28;20212;-36
2023/06/23 06:07:28;;;;;;;6.18;4.70;;;;;;;;;;5092871;28;20193;-38
2023/06/23 06:09:56;;;;;;;6.18;5.00;;;;;;;;;;5102356;28;20208;-33
2023/06/23 06:12:24;;;;;;;5.68;5.05;;;;;;;;;;5108158;28;20314;-32
2023/06/23 06:14:55;;;;;;;7.38;5.53;;;;;;;;;;5113691;28;20199;-38
2023/06/23 06:17:22;;;;;;;6.00;5.37;;;;;;;;;;5111898;28;20274;-38
2023/06/23 06:19:51;;;;;;;7.63;5.28;;;;;;;;;;5100553;28;20211;-35
2023/06/23 06:22:19;;;;;;;7.07;5.25;;;;;;;;;;5112759;28;20215;-37
2023/06/23 06:24:47;;;;;;;6.88;5.50;;;;;;;;;;5098652;28;20222;-36
2023/06/23 06:27:17;;;;;;;11.13;5.87;;;;;;;;;;5093126;28;20223;-39
2023/06/23 06:29:45;;;;;;;6.78;6.10;;;;;;;;;;5092643;28;20200;-36
2023/06/23 06:32:13;;;;;;;9.00;5.80;;;;;;;;;;5092683;28;20200;-37
2023/06/23 06:34:43;;;;;;;7.70;6.25;;;;;;;;;;5111716;28;20204;-33
2023/06/23 06:37:18;;;;;;;7.72;5.90;;;;;;;;;;5091515;28;20192;-29
2023/06/23 06:39:46;;;;;;;7.78;6.97;;;;;;;;;;5090586;28;20215;-34
2023/06/23 06:42:13;;;;;;;8.20;7.10;;;;;;;;;;5110708;28;20226;-37
2023/06/23 06:44:40;;;;;;;8.73;7.13;;;;;;;;;;5112653;28;20206;-32
2023/06/23 06:47:08;;;;;;;9.23;6.70;;;;;;;;;;5095357;28;20200;-32
2023/06/23 06:49:35;;;;;;;8.85;7.32;;;;;;;;;;5092346;28;20204;-32
2023/06/23 06:52:03;;;;;;;7.93;7.05;;;;;;;;;;5092348;28;20291;-32
2023/06/23 06:54:32;;;;;;;9.13;7.65;;;;;;;;;;5097257;28;20195;-35
2023/06/23 06:56:59;;;;;;;8.15;7.05;;;;;;;;;;5094529;28;20200;-35
2023/06/23 06:59:26;;;;;;;11.68;8.13;;;;;;;;;;5091721;28;20227;-36
2023/06/23 07:01:54;;;;;;;11.47;7.97;;;;;;;;;;5093650;28;20334;-30
2023/06/23 07:04:21;;;;;;;11.25;8.23;;;;;;;;;;5103972;28;20211;-38
2023/06/23 07:06:53;;;;;;;9.35;7.97;;;;;;;;;;5093100;28;20291;-38
2023/06/23 07:09:20;;;;;;;7.78;6.82;;;;;;;;;;5096908;28;20257;-37
2023/06/23 07:11:49;;;;;;;9.47;8.13;;;;;;;;;;5101977;28;20206;-31
2023/06/23 07:14:16;;;;;;;10.43;7.63;;;;;;;;;;5091959;28;20219;-32
2023/06/23 07:16:43;;;;;;;10.38;7.97;;;;;;;;;;5091432;28;20215;-32
2023/06/23 07:19:11;;;;;;;12.20;8.25;;;;;;;;;;5100147;28;20242;-35
2023/06/23 07:21:38;;;;;;;11.77;8.40;;;;;;;;;;5094795;28;20224;-38
2023/06/23 07:24:05;;;;;;;9.57;7.97;;;;;;;;;;5092098;28;20439;-37
2023/06/23 07:26:37;;;;;;;9.27;8.27;;;;;;;;;;5099744;28;20208;-31
2023/06/23 07:29:05;;;;;;;9.23;7.53;;;;;;;;;;5099826;28;20223;-40
2023/06/23 07:31:33;;;;;;;10.02;8.43;;;;;;;;;;5091996;28;20211;-31
2023/06/23 07:34:00;;;;;;;9.63;7.88;;;;;;;;;;5095588;28;20200;-30
2023/06/23 07:36:27;;;;;;;12.07;8.15;;;;;;;;;;5109482;28;20222;-37
2023/06/23 07:38:54;;;;;;;11.20;7.60;;;;;;;;;;5105177;28;20223;-32
2023/06/23 07:41:21;;;;;;;9.47;7.17;;;;;;;;;;5098006;28;20278;-34
2023/06/23 07:43:48;;;;;;;11.50;7.88;;;;;;;;;;5099324;28;20204;-35
2023/06/23 07:46:17;;;;;;;7.25;5.93;;;;;;;;;;5110633;28;20210;-32
2023/06/23 07:48:44;;;;;;;11.32;7.93;;;;;;;;;;5097599;28;20234;-37
2023/06/23 07:51:11;;;;;;;9.60;7.97;;;;;;;;;;5099928;28;20222;-33
2023/06/23 07:53:38;;;;;;;9.70;7.30;;;;;;;;;;5109671;28;20199;-35
2023/06/23 07:56:05;;;;;;;7.90;6.40;;;;;;;;;;5101158;28;20209;-36
2023/06/23 07:58:33;;;;;;;10.13;8.23;;;;;;;;;;5094632;28;20224;-31
2023/06/23 08:01:00;;;;;;;8.67;7.00;;;;;;;;;;5095067;28;20231;-34
2023/06/23 08:03:28;;;;;;;8.10;6.73;;;;;;;;;;5095450;28;20245;-37
2023/06/23 08:05:55;;;;;;;8.85;7.28;;;;;;;;;;5095219;28;20215;-33
2023/06/23 08:08:22;;;;;;;7.57;6.88;;;;;;;;;;5100208;28;20224;-35
2023/06/23 08:10:49;;;;;;;6.57;4.80;;;;;;;;;;5104990;28;20315;-38
2023/06/23 08:13:16;;;;;;;12.40;5.82;;;;;;;;;;5094752;28;20196;-33
2023/06/23 08:15:44;;;;;;;6.97;4.47;;;;;;;;;;5094685;28;20204;-38
2023/06/23 08:18:11;;;;;;;7.53;5.70;;;;;;;;;;5102166;28;20238;-34
2023/06/23 08:20:39;;;;;;;8.60;6.30;;;;;;;;;;5107269;28;20291;-31
2023/06/23 08:23:07;;;;;;;8.68;6.03;;;;;;;;;;5112043;28;20228;-35
2023/06/23 08:25:37;;;;;;;5.90;5.30;;;;;;;;;;5106176;28;20207;-37
2023/06/23 08:28:04;;;;;;;7.55;6.47;;;;;;;;;;5098725;28;20215;-33
2023/06/23 08:38:14;;;;;;;7.47;6.20;;;;;;;;;;5094638;28;20230;-30
2023/06/23 08:40:41;;;;;;;6.55;5.65;;;;;;;;;;5101330;28;20209;-32
2023/06/23 08:43:10;;;;;;;8.43;6.95;;;;;;;;;;5112905;28;20308;-36
2023/06/23 08:45:40;;;;;;;6.88;5.78;;;;;;;;;;5110932;28;20245;-32
2023/06/23 08:48:07;;;;;;;7.07;6.38;;;;;;;;;;5098216;28;20219;-35
2023/06/23 08:50:35;;;;;;;6.72;6.03;;;;;;;;;;5105867;28;20197;-31
2023/06/23 08:53:02;;;;;;;3.42;3.13;;;;;;;;;;5109066;28;20317;-30
2023/06/23 08:55:32;;;;;;;7.18;5.20;;;;;;;;;;5100628;28;20207;-31
2023/06/23 08:58:00;;;;;;;5.82;5.22;;;;;;;;;;5103208;28;20254;-32
2023/06/23 09:00:27;;;;;;;6.70;5.28;;;;;;;;;;5112756;28;20240;-31
2023/06/23 09:02:55;;;;;;;7.00;4.90;;;;;;;;;;5106208;28;20225;-33
2023/06/23 09:05:22;;;;;;;8.65;5.70;;;;;;;;;;5094688;28;20256;-31
2023/06/23 09:07:49;;;;;;;6.68;5.78;;;;;;;;;;5091660;28;20226;-32
2023/06/23 09:10:17;;;;;;;5.18;4.50;;;;;;;;;;5103642;28;20198;-31
2023/06/23 09:12:54;;;;;;;6.18;5.40;;;;;;;;;;5094081;28;20210;-31
2023/06/23 09:15:21;;;;;;;6.65;5.32;;;;;;;;;;5092293;28;20190;-33
2023/06/23 09:17:49;;;;;;;5.50;5.00;;;;;;;;;;5090756;28;20284;-35
2023/06/23 09:20:17;;;;;;;4.30;3.03;;;;;;;;;;5091833;28;20209;-34
2023/06/23 09:22:46;;;;;;;5.18;4.75;;;;;;;;;;5110032;28;20313;-35
2023/06/23 09:25:34;;;;;;;5.80;4.90;;;;;;;;;;5087602;28;20213;-36
2023/06/23 09:28:03;;;;;;;6.25;5.65;;;;;;;;;;5094264;28;20212;-34
2023/06/23 09:30:33;;;;;;;6.35;4.25;;;;;;;;;;5112600;28;20200;-32
2023/06/23 09:33:00;;;;;;;6.50;5.40;;;;;;;;;;5104261;28;20261;-29
2023/06/23 09:35:27;;;;;;;7.28;4.65;;;;;;;;;;5095670;28;20210;-33
2023/06/23 09:37:55;;;;;;;4.97;4.38;;;;;;;;;;5108210;28;20230;-35
2023/06/23 09:40:26;;;;;;;5.60;4.82;;;;;;;;;;5093336;28;20207;-32
2023/06/23 09:42:57;;;;;;;6.03;4.80;;;;;;;;;;5093619;28;20282;-32
2023/06/23 09:45:26;;;;;;;5.40;4.85;;;;;;;;;;5112157;28;20205;-31
2023/06/23 09:47:53;;;;;;;7.32;4.93;;;;;;;;;;5107247;28;20233;-31
2023/06/23 09:50:23;;;;;;;6.65;4.68;;;;;;;;;;5097708;28;20203;-32
2023/06/23 09:53:01;;;;;;;5.60;5.00;;;;;;;;;;5100745;28;20206;-36
2023/06/23 09:55:30;;;;;;;5.32;4.63;;;;;;;;;;5095887;28;20210;-32
2023/06/23 09:57:57;;;;;;;5.88;5.00;;;;;;;;;;5099137;28;20236;-31
2023/06/23 10:00:31;;;;;;;6.10;5.05;;;;;;;;;;5092887;28;20214;-31
2023/06/23 10:02:59;;;;;;;6.60;5.32;;;;;;;;;;5093612;28;20306;-34
2023/06/23 10:05:26;;;;;;;4.63;4.22;;;;;;;;;;5105641;28;20212;-33
2023/06/23 10:08:06;;;;;;;6.72;4.70;;;;;;;;;;5110216;28;20218;-31
2023/06/23 10:10:34;;;;;;;5.47;4.90;;;;;;;;;;5096336;28;20201;-32
2023/06/23 10:13:01;;;;;;;5.93;4.72;;;;;;;;;;5093891;28;20202;-32
2023/06/23 10:15:29;;;;;;;5.88;4.85;;;;;;;;;;5111397;28;20521;-32
2023/06/23 10:17:57;;;;;;;5.05;4.55;;;;;;;;;;5097252;28;20238;-33
2023/06/23 10:20:24;;;;;;;6.40;4.30;;;;;;;;;;5095904;28;20198;-32
2023/06/23 10:22:52;;;;;;;5.13;4.70;;;;;;;;;;5090609;28;20258;-33
2023/06/23 10:25:21;;;;;;;3.72;3.33;;;;;;;;;;5103897;28;20208;-32
2023/06/23 10:27:51;;;;;;;4.53;4.07;;;;;;;;;;5098375;28;20226;-34
2023/06/23 10:30:19;;;;;;;5.20;4.70;;;;;;;;;;5091251;28;20210;-32
2023/06/23 10:32:49;;;;;;;4.43;4.00;;;;;;;;;;5093935;28;20197;-34
2023/06/23 10:35:19;;;;;;;5.70;3.90;;;;;;;;;;5097364;28;20205;-32
2023/06/23 10:37:47;;;;;;;6.20;3.60;;;;;;;;;;5090070;28;20239;-34
2023/06/23 10:40:18;;;;;;;5.10;4.07;;;;;;;;;;5101095;28;20197;-35
2023/06/23 10:42:48;;;;;;;4.47;4.00;;;;;;;;;;5104152;28;20216;-31
2023/06/23 10:45:15;;;;;;;6.20;4.00;;;;;;;;;;5092246;28;20214;-30
2023/06/23 10:47:43;;;;;;;4.93;4.10;;;;;;;;;;5104656;28;20233;-32
2023/06/23 10:50:11;;;;;;;3.40;3.10;;;;;;;;;;5096228;28;20210;-32
2023/06/23 10:52:39;;;;;;;3.97;3.50;;;;;;;;;;5112633;28;20309;-32
2023/06/23 10:55:21;;;;;;;4.10;3.80;;;;;;;;;;5097842;28;20210;-36
2023/06/23 10:58:03;;;;;;;4.93;3.78;;;;;;;;;;5107110;28;20222;-30
2023/06/23 11:00:32;;;;;;;4.40;3.67;;;;;;;;;;5110573;28;20217;-34
2023/06/23 11:02:59;;;;;;;4.38;3.75;;;;;;;;;;5102184;28;20217;-31
2023/06/23 11:05:26;;;;;;;4.53;3.28;;;;;;;;;;5096968;28;20198;-31
2023/06/23 11:08:04;;;;;;;4.38;3.97;;;;;;;;;;5088476;28;20225;-33
2023/06/23 11:10:47;;;;;;;3.22;2.88;;;;;;;;;;5093862;28;20197;-31
2023/06/23 11:13:14;;;;;;;5.63;4.32;;;;;;;;;;5090462;28;20206;-34
2023/06/23 11:15:42;;;;;;;4.55;4.07;;;;;;;;;;5090188;28;20197;-32
2023/06/23 11:18:14;;;;;;;4.10;3.80;;;;;;;;;;5091292;28;20253;-33
2023/06/23 11:20:42;;;;;;;5.88;4.07;;;;;;;;;;5095547;28;20213;-31
2023/06/23 11:23:11;;;;;;;6.80;3.85;;;;;;;;;;5100254;28;20214;-30
2023/06/23 11:25:41;;;;;;;5.85;3.78;;;;;;;;;;5094474;28;20209;-31
2023/06/23 11:28:28;;;;;;;3.55;3.25;;;;;;;;;;5109673;28;20226;-32
2023/06/23 11:30:55;;;;;;;4.78;4.35;;;;;;;;;;5093425;28;20211;-32
2023/06/23 11:33:26;;;;;;;4.97;4.20;;;;;;;;;;5099669;28;20202;-35
2023/06/23 11:35:53;;;;;;;4.22;3.70;;;;;;;;;;5103375;28;20199;-33
2023/06/23 11:38:22;;;;;;;4.95;3.80;;;;;;;;;;5090889;28;20221;-33
2023/06/23 11:40:51;;;;;;;3.78;3.30;;;;;;;;;;5092056;28;20365;-30
2023/06/23 11:43:19;;;;;;;4.32;3.40;;;;;;;;;;5097940;28;20262;-32
2023/06/23 11:45:48;;;;;;;6.60;4.50;;;;;;;;;;5109852;28;20236;-31
2023/06/23 11:48:16;;;;;;;3.63;2.88;;;;;;;;;;5109627;28;20301;-30
2023/06/23 11:50:43;;;;;;;5.32;3.85;;;;;;;;;;5089789;28;20216;-35
2023/06/23 11:53:11;;;;;;;3.95;3.45;;;;;;;;;;5085334;28;20198;-33
2023/06/23 11:55:39;;;;;;;3.22;2.50;;;;;;;;;;5101521;28;20308;-33
2023/06/23 11:58:06;;;;;;;4.07;3.67;;;;;;;;;;5099848;28;20223;-33
2023/06/23 12:00:34;;;;;;;4.32;3.80;;;;;;;;;;5093095;28;20205;-34
2023/06/23 12:03:01;;;;;;;4.65;4.07;;;;;;;;;;5097045;28;20219;-33
2023/06/23 12:05:28;;;;;;;5.13;3.22;;;;;;;;;;5109274;28;20201;-32
2023/06/23 12:07:55;;;;;;;3.83;3.30;;;;;;;;;;5097768;28;20229;-33
2023/06/23 12:10:24;;;;;;;4.53;3.92;;;;;;;;;;5095633;28;20202;-30
2023/06/23 12:12:56;;;;;;;4.28;3.25;;;;;;;;;;5097192;28;20194;-34
2023/06/23 12:15:23;;;;;;;4.75;3.38;;;;;;;;;;5100844;28;20204;-32
2023/06/23 12:17:50;;;;;;;3.00;2.67;;;;;;;;;;5099361;28;20214;-34
2023/06/23 12:20:19;;;;;;;3.33;2.95;;;;;;;;;;5097678;28;20209;-34
2023/06/23 12:22:49;;;;;;;3.28;2.97;;;;;;;;;;5099484;28;20320;-31
2023/06/23 12:25:16;;;;;;;3.95;2.63;;;;;;;;;;5103455;28;20198;-30
2023/06/23 12:27:51;;;;;;;3.60;2.97;;;;;;;;;;5101917;28;20221;-31
2023/06/23 12:30:20;;;;;;;3.65;3.35;;;;;;;;;;5099979;28;20190;-33
2023/06/23 12:32:47;;;;;;;3.35;3.10;;;;;;;;;;5098644;28;20266;-33
2023/06/23 12:35:18;;;;;;;5.60;3.28;;;;;;;;;;5105166;28;20208;-30
2023/06/23 12:37:47;;;;;;;2.70;2.33;;;;;;;;;;5111999;28;20237;-32
2023/06/23 12:40:29;;;;;;;8.23;4.45;;;;;;;;;;5098201;28;20542;-32
2023/06/23 12:42:58;;;;;;;3.47;3.17;;;;;;;;;;5101746;28;20236;-31
2023/06/23 12:45:27;;;;;;;5.05;4.00;;;;;;;;;;5092478;28;20252;-29
2023/06/23 12:47:55;;;;;;;3.97;3.67;;;;;;;;;;5093183;28;20257;-34
2023/06/23 12:50:28;;;;;;;9.23;4.30;;;;;;;;;;5098253;28;20652;-32
2023/06/23 12:52:55;;;;;;;3.92;3.58;;;;;;;;;;5090252;28;20211;-32
2023/06/23 12:55:23;;;;;;;4.85;3.67;;;;;;;;;;5088138;28;20202;-34
2023/06/23 12:57:50;;;;;;;3.78;2.97;;;;;;;;;;5084181;28;20229;-32
2023/06/23 13:00:18;;;;;;;4.82;2.92;;;;;;;;;;5087395;28;20211;-31
2023/06/23 13:02:48;;;;;;;3.22;2.58;;;;;;;;;;5079126;28;20229;-30
2023/06/23 13:05:16;;;;;;;3.38;3.05;;;;;;;;;;5100325;28;20241;-33
2023/06/23 13:07:43;;;;;;;3.22;2.90;;;;;;;;;;5088247;28;20218;-33
2023/06/23 13:10:11;;;;;;;2.70;2.50;;;;;;;;;;5097591;28;20427;-29
2023/06/23 13:12:38;;;;;;;3.95;3.53;;;;;;;;;;5099561;28;20208;-32
2023/06/23 13:15:06;;;;;;;3.40;3.10;;;;;;;;;;5088354;28;20686;-33
2023/06/23 13:17:33;;;;;;;3.13;2.83;;;;;;;;;;5087654;28;20226;-33
2023/06/23 13:20:04;;;;;;;5.93;3.30;;;;;;;;;;5098526;28;20213;-34
2023/06/23 13:22:31;;;;;;;3.10;2.88;;;;;;;;;;5100258;28;20203;-34
2023/06/23 13:24:58;;;;;;;6.38;3.10;;;;;;;;;;5101768;28;20490;-31
2023/06/23 13:27:25;;;;;;;3.20;3.00;;;;;;;;;;5092271;28;20226;-31
2023/06/23 13:29:52;;;;;;;3.30;3.00;;;;;;;;;;5112207;28;20208;-30
2023/06/23 13:32:19;;;;;;;3.53;3.05;;;;;;;;;;5109596;28;20263;-30
2023/06/23 13:34:47;;;;;;;3.42;3.13;;;;;;;;;;5110721;28;20205;-32
2023/06/23 13:37:15;;;;;;;3.15;2.90;;;;;;;;;;5091958;28;20201;-33
2023/06/23 13:39:42;;;;;;;4.03;3.33;;;;;;;;;;5098131;28;20208;-33
2023/06/23 13:42:09;;;;;;;3.03;2.80;;;;;;;;;;5092186;28;20209;-32
2023/06/23 13:44:37;;;;;;;4.32;3.00;;;;;;;;;;5109121;28;20221;-34
2023/06/23 13:47:04;;;;;;;3.17;2.92;;;;;;;;;;5109341;28;20245;-29
2023/06/23 13:49:31;;;;;;;3.20;2.90;;;;;;;;;;5092392;28;20217;-34
2023/06/23 13:51:58;;;;;;;3.90;2.97;;;;;;;;;;5102461;28;20200;-32
2023/06/23 13:54:27;;;;;;;4.75;2.92;;;;;;;;;;5098596;28;20206;-35
2023/06/23 13:56:55;;;;;;;3.33;3.00;;;;;;;;;;5091108;28;20218;-29
2023/06/23 13:59:22;;;;;;;3.47;3.00;;;;;;;;;;5111043;28;20225;-35
2023/06/23 14:01:50;;;;;;;3.20;2.90;;;;;;;;;;5092799;28;20210;-31
2023/06/23 14:04:20;;;;;;;3.47;3.17;;;;;;;;;;5089090;28;20218;-32
2023/06/23 14:06:48;;;;;;;3.30;3.10;;;;;;;;;;5099945;28;20209;-33
2023/06/23 14:09:16;;;;;;;3.40;3.10;;;;;;;;;;5098061;28;20232;-31
2023/06/23 14:11:45;;;;;;;2.50;2.30;;;;;;;;;;5099547;28;20214;-34
2023/06/23 14:14:13;;;;;;;3.20;2.97;;;;;;;;;;5097812;28;20507;-33
2023/06/23 14:16:40;;;;;;;4.32;2.53;;;;;;;;;;5091361;28;20216;-32
2023/06/23 14:19:10;;;;;;;5.43;2.97;;;;;;;;;;5089528;28;20316;-30
2023/06/23 14:21:40;;;;;;;2.33;2.08;;;;;;;;;;5100143;28;20202;-32
2023/06/23 14:24:07;;;;;;;2.72;2.53;;;;;;;;;;5097706;28;20215;-33
2023/06/23 14:26:35;;;;;;;2.80;2.60;;;;;;;;;;5101212;28;20197;-28
2023/06/23 14:29:03;;;;;;;3.63;2.83;;;;;;;;;;5099679;28;20227;-31
2023/06/23 14:34:06;;;;;;;5.03;2.15;;;;;;;;;;5176944;23;20229;-26
2023/06/23 14:36:33;;;;;;;3.88;2.85;;;;;;;;;;5088727;28;20196;-26
2023/06/23 14:39:00;;;;;;;3.35;3.05;;;;;;;;;;5074050;28;20421;-24
2023/06/23 14:41:28;;;;;;;3.42;3.08;;;;;;;;;;5067168;28;20399;-27
2023/06/23 14:43:55;;;;;;;3.63;3.33;;;;;;;;;;5072931;28;20224;-25
2023/06/23 14:46:23;;;;;;;3.30;3.00;;;;;;;;;;5073153;28;20229;-27
2023/06/23 14:48:50;;;;;;;3.83;2.70;;;;;;;;;;5061609;28;20586;-24
2023/06/23 14:51:18;;;;;;;3.33;2.97;;;;;;;;;;5071915;28;20204;-27
2023/06/23 14:53:46;;;;;;;3.30;2.75;;;;;;;;;;5064918;28;20290;-24
2023/06/23 14:56:13;;;;;;;3.50;2.95;;;;;;;;;;5067495;28;20214;-27
2023/06/23 14:58:40;;;;;;;6.18;3.10;;;;;;;;;;5072263;28;20224;-25
2023/06/23 15:01:07;;;;;;;6.35;3.20;;;;;;;;;;5072715;28;20217;-27
2023/06/23 15:03:36;;;;;;;3.10;2.80;;;;;;;;;;5067325;28;20223;-25
2023/06/23 15:06:03;;;;;;;3.88;3.03;;;;;;;;;;5068308;28;20204;-25